sensor_id;sensor_type;location;lat;lon;timestamp;pressure;altitude;pressure_sealevel;temperature;humidity
46347;BME280;32057;47.830;19.046;2023-11-21T00:00:21;99728.34;;;4.04;100.00
46347;BME280;32057;47.830;19.046;2023-11-21T00:02:46;99730.84;;;4.03;100.00
46347;BME280;32057;47.830;19.046;2023-11-21T00:05:13;99726.47;;;4.00;100.00
46347;BME280;32057;47.830;19.046;2023-11-21T00:07:42;99725.41;;;3.95;100.00
46347;BME280;32057;47.830;19.046;2023-11-21T00:10:09;99724.81;;;4.02;100.00
46347;BME280;32057;47.830;19.046;2023-11-21T00:12:36;99723.06;;;4.01;100.00
46347;BME280;32057;47.830;19.046;2023-11-21T00:15:02;99735.19;;;4.04;100.00
46347;BME280;32057;47.830;19.046;2023-11-21T00:17:27;99727.41;;;4.02;100.00
46347;BME280;32057;47.830;19.046;2023-11-21T00:19:53;99726.56;;;4.03;100.00
46347;BME280;32057;47.830;19.046;2023-11-21T00:22:18;99731.72;;;4.03;100.00
46347;BME280;32057;47.830;19.046;2023-11-21T00:24:44;99742.91;;;4.04;100.00
46347;BME280;32057;47.830;19.046;2023-11-21T00:27:09;99754.31;;;4.10;100.00
46347;BME280;32057;47.830;19.046;2023-11-21T00:29:35;99758.53;;;4.08;100.00
46347;BME280;32057;47.830;19.046;2023-11-21T00:32:00;99762.19;;;4.15;100.00
46347;BME280;32057;47.830;19.046;2023-11-21T00:34:26;99761.44;;;4.17;100.00
46347;BME280;32057;47.830;19.046;2023-11-21T00:36:51;99769.31;;;4.22;100.00
46347;BME280;32057;47.830;19.046;2023-11-21T00:39:16;99768.69;;;4.28;100.00
46347;BME280;32057;47.830;19.046;2023-11-21T00:41:42;99767.78;;;4.27;100.00
46347;BME280;32057;47.830;19.046;2023-11-21T00:44:07;99771.03;;;4.22;100.00
46347;BME280;32057;47.830;19.046;2023-11-21T00:46:33;99765.69;;;4.17;100.00
46347;BME280;32057;47.830;19.046;2023-11-21T00:48:58;99767.53;;;4.19;100.00
46347;BME280;32057;47.830;19.046;2023-11-21T00:51:24;99757.09;;;4.16;100.00
46347;BME280;32057;47.830;19.046;2023-11-21T00:53:49;99759.81;;;4.19;100.00
46347;BME280;32057;47.830;19.046;2023-11-21T00:56:15;99753.00;;;4.22;100.00
46347;BME280;32057;47.830;19.046;2023-11-21T00:58:41;99750.59;;;4.26;100.00
46347;BME280;32057;47.830;19.046;2023-11-21T01:01:09;99749.00;;;4.30;100.00
46347;BME280;32057;47.830;19.046;2023-11-21T01:03:34;99751.59;;;4.30;100.00
46347;BME280;32057;47.830;19.046;2023-11-21T01:06:00;99744.78;;;4.32;100.00
46347;BME280;32057;47.830;19.046;2023-11-21T01:08:25;99740.44;;;4.31;100.00
46347;BME280;32057;47.830;19.046;2023-11-21T01:10:51;99742.03;;;4.27;100.00
46347;BME280;32057;47.830;19.046;2023-11-21T01:13:16;99738.59;;;4.27;100.00
46347;BME280;32057;47.830;19.046;2023-11-21T01:15:42;99738.75;;;4.31;100.00
46347;BME280;32057;47.830;19.046;2023-11-21T01:18:07;99741.38;;;4.33;100.00
46347;BME280;32057;47.830;19.046;2023-11-21T01:20:34;99743.03;;;4.31;100.00
46347;BME280;32057;47.830;19.046;2023-11-21T01:22:59;99741.16;;;4.27;100.00
46347;BME280;32057;47.830;19.046;2023-11-21T01:25:25;99736.13;;;4.30;100.00
46347;BME280;32057;47.830;19.046;2023-11-21T01:27:51;99730.34;;;4.37;100.00
46347;BME280;32057;47.830;19.046;2023-11-21T01:30:17;99727.91;;;4.40;100.00
46347;BME280;32057;47.830;19.046;2023-11-21T01:32:43;99717.19;;;4.28;100.00
46347;BME280;32057;47.830;19.046;2023-11-21T01:35:09;99719.69;;;4.26;100.00
46347;BME280;32057;47.830;19.046;2023-11-21T01:37:36;99718.59;;;4.19;100.00
46347;BME280;32057;47.830;19.046;2023-11-21T01:40:02;99730.41;;;4.14;100.00
46347;BME280;32057;47.830;19.046;2023-11-21T01:42:27;99729.63;;;4.15;100.00
46347;BME280;32057;47.830;19.046;2023-11-21T01:44:54;99728.00;;;4.19;100.00
46347;BME280;32057;47.830;19.046;2023-11-21T01:47:20;99729.94;;;4.25;100.00
46347;BME280;32057;47.830;19.046;2023-11-21T01:49:46;99717.75;;;4.21;100.00
46347;BME280;32057;47.830;19.046;2023-11-21T01:52:13;99717.75;;;4.21;100.00
46347;BME280;32057;47.830;19.046;2023-11-21T01:54:38;99720.72;;;4.07;100.00
46347;BME280;32057;47.830;19.046;2023-11-21T01:57:05;99724.25;;;3.87;100.00
46347;BME280;32057;47.830;19.046;2023-11-21T01:59:36;99721.38;;;3.79;100.00
46347;BME280;32057;47.830;19.046;2023-11-21T02:02:10;99724.84;;;3.57;100.00
46347;BME280;32057;47.830;19.046;2023-11-21T02:04:36;99718.28;;;3.65;100.00
46347;BME280;32057;47.830;19.046;2023-11-21T02:07:02;99713.22;;;3.67;100.00
46347;BME280;32057;47.830;19.046;2023-11-21T02:09:31;99708.22;;;3.71;100.00
46347;BME280;32057;47.830;19.046;2023-11-21T02:12:03;99707.19;;;3.66;100.00
46347;BME280;32057;47.830;19.046;2023-11-21T02:14:30;99698.59;;;3.66;100.00
46347;BME280;32057;47.830;19.046;2023-11-21T02:16:56;99702.06;;;3.66;100.00
46347;BME280;32057;47.830;19.046;2023-11-21T02:19:26;99709.63;;;3.63;100.00
46347;BME280;32057;47.830;19.046;2023-11-21T02:21:52;99713.97;;;3.64;100.00
46347;BME280;32057;47.830;19.046;2023-11-21T02:24:22;99704.97;;;3.75;100.00
46347;BME280;32057;47.830;19.046;2023-11-21T02:26:48;99704.31;;;3.81;100.00
46347;BME280;32057;47.830;19.046;2023-11-21T02:29:19;99699.38;;;3.87;100.00
46347;BME280;32057;47.830;19.046;2023-11-21T02:31:48;99697.41;;;3.80;100.00
46347;BME280;32057;47.830;19.046;2023-11-21T02:34:17;99692.84;;;3.73;100.00
46347;BME280;32057;47.830;19.046;2023-11-21T02:36:44;99688.41;;;3.69;100.00
46347;BME280;32057;47.830;19.046;2023-11-21T02:39:12;99689.06;;;3.63;100.00
46347;BME280;32057;47.830;19.046;2023-11-21T02:41:38;99677.13;;;3.65;100.00
46347;BME280;32057;47.830;19.046;2023-11-21T02:44:05;99677.91;;;3.63;100.00
46347;BME280;32057;47.830;19.046;2023-11-21T02:46:32;99668.94;;;3.53;100.00
46347;BME280;32057;47.830;19.046;2023-11-21T02:48:59;99657.72;;;3.51;100.00
46347;BME280;32057;47.830;19.046;2023-11-21T02:51:25;99662.78;;;3.48;100.00
46347;BME280;32057;47.830;19.046;2023-11-21T02:53:50;99667.84;;;3.46;100.00
46347;BME280;32057;47.830;19.046;2023-11-21T02:56:16;99670.94;;;3.37;100.00
46347;BME280;32057;47.830;19.046;2023-11-21T02:58:42;99680.34;;;3.37;100.00
46347;BME280;32057;47.830;19.046;2023-11-21T03:01:09;99677.03;;;3.39;100.00
46347;BME280;32057;47.830;19.046;2023-11-21T03:03:35;99683.56;;;3.31;100.00
46347;BME280;32057;47.830;19.046;2023-11-21T03:06:04;99668.44;;;3.39;100.00
46347;BME280;32057;47.830;19.046;2023-11-21T03:08:29;99673.63;;;3.41;100.00
46347;BME280;32057;47.830;19.046;2023-11-21T03:10:55;99676.34;;;3.44;100.00
46347;BME280;32057;47.830;19.046;2023-11-21T03:13:21;99674.03;;;3.51;100.00
46347;BME280;32057;47.830;19.046;2023-11-21T03:15:46;99677.97;;;3.64;100.00
46347;BME280;32057;47.830;19.046;2023-11-21T03:18:12;99675.63;;;3.70;100.00
46347;BME280;32057;47.830;19.046;2023-11-21T03:20:38;99670.34;;;3.67;100.00
46347;BME280;32057;47.830;19.046;2023-11-21T03:23:03;99667.84;;;3.69;100.00
46347;BME280;32057;47.830;19.046;2023-11-21T03:25:30;99660.84;;;3.89;100.00
46347;BME280;32057;47.830;19.046;2023-11-21T03:27:56;99658.97;;;3.85;100.00
46347;BME280;32057;47.830;19.046;2023-11-21T03:30:22;99645.81;;;3.99;100.00
46347;BME280;32057;47.830;19.046;2023-11-21T03:32:47;99645.97;;;4.04;100.00
46347;BME280;32057;47.830;19.046;2023-11-21T03:35:13;99643.94;;;4.19;100.00
46347;BME280;32057;47.830;19.046;2023-11-21T03:37:38;99647.38;;;4.20;100.00
46347;BME280;32057;47.830;19.046;2023-11-21T03:40:07;99651.09;;;4.04;100.00
46347;BME280;32057;47.830;19.046;2023-11-21T03:42:33;99650.88;;;3.98;100.00
46347;BME280;32057;47.830;19.046;2023-11-21T03:44:59;99653.28;;;3.93;100.00
46347;BME280;32057;47.830;19.046;2023-11-21T03:47:26;99653.75;;;3.82;100.00
46347;BME280;32057;47.830;19.046;2023-11-21T03:49:51;99644.97;;;3.76;100.00
46347;BME280;32057;47.830;19.046;2023-11-21T03:52:17;99637.66;;;3.65;100.00
46347;BME280;32057;47.830;19.046;2023-11-21T03:54:42;99646.25;;;3.65;100.00
46347;BME280;32057;47.830;19.046;2023-11-21T03:57:08;99646.13;;;3.85;100.00
46347;BME280;32057;47.830;19.046;2023-11-21T03:59:34;99636.66;;;3.84;100.00
46347;BME280;32057;47.830;19.046;2023-11-21T04:02:00;99630.16;;;3.71;100.00
46347;BME280;32057;47.830;19.046;2023-11-21T04:04:25;99623.88;;;3.63;100.00
46347;BME280;32057;47.830;19.046;2023-11-21T04:06:51;99622.88;;;3.59;100.00
46347;BME280;32057;47.830;19.046;2023-11-21T04:09:17;99625.34;;;3.56;100.00
46347;BME280;32057;47.830;19.046;2023-11-21T04:11:42;99627.50;;;3.45;100.00
46347;BME280;32057;47.830;19.046;2023-11-21T04:14:10;99625.84;;;3.46;100.00
46347;BME280;32057;47.830;19.046;2023-11-21T04:16:36;99637.63;;;3.41;100.00
46347;BME280;32057;47.830;19.046;2023-11-21T04:19:01;99641.72;;;3.35;100.00
46347;BME280;32057;47.830;19.046;2023-11-21T04:21:27;99648.84;;;3.43;100.00
46347;BME280;32057;47.830;19.046;2023-11-21T04:23:52;99653.00;;;3.39;100.00
46347;BME280;32057;47.830;19.046;2023-11-21T04:26:18;99655.69;;;3.42;100.00
46347;BME280;32057;47.830;19.046;2023-11-21T04:28:43;99662.53;;;3.42;100.00
46347;BME280;32057;47.830;19.046;2023-11-21T04:31:10;99666.69;;;3.38;100.00
46347;BME280;32057;47.830;19.046;2023-11-21T04:33:35;99677.03;;;3.39;100.00
46347;BME280;32057;47.830;19.046;2023-11-21T04:36:00;99676.06;;;3.37;100.00
46347;BME280;32057;47.830;19.046;2023-11-21T04:38:26;99676.75;;;3.32;100.00
46347;BME280;32057;47.830;19.046;2023-11-21T04:40:51;99675.75;;;3.28;100.00
46347;BME280;32057;47.830;19.046;2023-11-21T04:43:17;99683.16;;;3.21;100.00
46347;BME280;32057;47.830;19.046;2023-11-21T04:45:42;99681.03;;;3.10;100.00
46347;BME280;32057;47.830;19.046;2023-11-21T04:48:08;99685.56;;;3.16;100.00
46347;BME280;32057;47.830;19.046;2023-11-21T04:50:34;99693.25;;;3.16;100.00
46347;BME280;32057;47.830;19.046;2023-11-21T04:52:59;99704.34;;;3.15;100.00
46347;BME280;32057;47.830;19.046;2023-11-21T04:55:25;99701.31;;;3.25;100.00
46347;BME280;32057;47.830;19.046;2023-11-21T04:57:53;99707.69;;;3.35;100.00
46347;BME280;32057;47.830;19.046;2023-11-21T05:00:19;99701.59;;;3.54;100.00
46347;BME280;32057;47.830;19.046;2023-11-21T05:02:45;99692.72;;;4.16;100.00
46347;BME280;32057;47.830;19.046;2023-11-21T05:05:10;99687.78;;;4.23;100.00
46347;BME280;32057;47.830;19.046;2023-11-21T05:07:36;99689.81;;;4.31;100.00
46347;BME280;32057;47.830;19.046;2023-11-21T05:10:01;99681.22;;;4.31;100.00
46347;BME280;32057;47.830;19.046;2023-11-21T05:12:31;99689.31;;;4.42;100.00
46347;BME280;32057;47.830;19.046;2023-11-21T05:15:01;99690.00;;;4.36;100.00
46347;BME280;32057;47.830;19.046;2023-11-21T05:17:28;99688.13;;;4.32;100.00
46347;BME280;32057;47.830;19.046;2023-11-21T05:19:53;99684.19;;;4.17;100.00
46347;BME280;32057;47.830;19.046;2023-11-21T05:22:19;99693.94;;;4.02;100.00
46347;BME280;32057;47.830;19.046;2023-11-21T05:24:45;99698.44;;;3.85;100.00
46347;BME280;32057;47.830;19.046;2023-11-21T05:27:10;99695.25;;;3.68;100.00
46347;BME280;32057;47.830;19.046;2023-11-21T05:29:35;99695.53;;;3.53;100.00
46347;BME280;32057;47.830;19.046;2023-11-21T05:32:03;99695.50;;;3.52;100.00
46347;BME280;32057;47.830;19.046;2023-11-21T05:34:28;99696.91;;;3.44;100.00
46347;BME280;32057;47.830;19.046;2023-11-21T05:36:53;99687.59;;;3.47;100.00
46347;BME280;32057;47.830;19.046;2023-11-21T05:39:19;99681.34;;;3.41;100.00
46347;BME280;32057;47.830;19.046;2023-11-21T05:41:44;99679.53;;;3.38;100.00
46347;BME280;32057;47.830;19.046;2023-11-21T05:44:10;99680.47;;;3.40;100.00
46347;BME280;32057;47.830;19.046;2023-11-21T05:46:37;99673.56;;;3.39;100.00
46347;BME280;32057;47.830;19.046;2023-11-21T05:49:02;99691.81;;;3.45;100.00
46347;BME280;32057;47.830;19.046;2023-11-21T05:51:28;99699.75;;;3.51;100.00
46347;BME280;32057;47.830;19.046;2023-11-21T05:53:53;99708.47;;;3.55;100.00
46347;BME280;32057;47.830;19.046;2023-11-21T05:56:19;99704.03;;;3.51;100.00
46347;BME280;32057;47.830;19.046;2023-11-21T05:58:44;99698.88;;;3.51;100.00
46347;BME280;32057;47.830;19.046;2023-11-21T06:01:10;99699.72;;;3.50;100.00
46347;BME280;32057;47.830;19.046;2023-11-21T06:03:38;99706.53;;;3.49;100.00
46347;BME280;32057;47.830;19.046;2023-11-21T06:06:03;99712.44;;;3.47;100.00
46347;BME280;32057;47.830;19.046;2023-11-21T06:08:29;99720.06;;;3.44;100.00
46347;BME280;32057;47.830;19.046;2023-11-21T06:10:55;99726.88;;;3.43;100.00
46347;BME280;32057;47.830;19.046;2023-11-21T06:13:20;99733.78;;;3.44;100.00
46347;BME280;32057;47.830;19.046;2023-11-21T06:15:49;99745.66;;;3.41;100.00
46347;BME280;32057;47.830;19.046;2023-11-21T06:18:15;99749.16;;;3.43;100.00
46347;BME280;32057;47.830;19.046;2023-11-21T06:20:40;99747.19;;;3.58;100.00
46347;BME280;32057;47.830;19.046;2023-11-21T06:23:06;99741.34;;;3.62;100.00
46347;BME280;32057;47.830;19.046;2023-11-21T06:25:32;99742.28;;;3.64;100.00
46347;BME280;32057;47.830;19.046;2023-11-21T06:28:01;99746.50;;;3.62;100.00
46347;BME280;32057;47.830;19.046;2023-11-21T06:30:26;99752.56;;;3.64;100.00
46347;BME280;32057;47.830;19.046;2023-11-21T06:32:52;99760.53;;;3.70;100.00
46347;BME280;32057;47.830;19.046;2023-11-21T06:35:18;99775.25;;;3.74;100.00
46347;BME280;32057;47.830;19.046;2023-11-21T06:37:43;99777.84;;;3.74;100.00
46347;BME280;32057;47.830;19.046;2023-11-21T06:40:18;99782.19;;;3.75;100.00
46347;BME280;32057;47.830;19.046;2023-11-21T06:42:44;99777.25;;;3.82;100.00
46347;BME280;32057;47.830;19.046;2023-11-21T06:45:10;99777.13;;;3.78;100.00
46347;BME280;32057;47.830;19.046;2023-11-21T06:47:36;99793.41;;;3.77;100.00
46347;BME280;32057;47.830;19.046;2023-11-21T06:50:03;99795.91;;;3.76;100.00
46347;BME280;32057;47.830;19.046;2023-11-21T06:52:29;99785.78;;;3.81;100.00
46347;BME280;32057;47.830;19.046;2023-11-21T06:54:54;99798.72;;;3.82;100.00
46347;BME280;32057;47.830;19.046;2023-11-21T06:57:20;99801.38;;;3.84;100.00
46347;BME280;32057;47.830;19.046;2023-11-21T06:59:48;99803.00;;;3.82;100.00
46347;BME280;32057;47.830;19.046;2023-11-21T07:02:13;99805.19;;;3.72;100.00
46347;BME280;32057;47.830;19.046;2023-11-21T07:04:39;99813.16;;;3.78;100.00
46347;BME280;32057;47.830;19.046;2023-11-21T07:07:06;99814.66;;;3.73;100.00
46347;BME280;32057;47.830;19.046;2023-11-21T07:09:32;99815.03;;;3.83;100.00
46347;BME280;32057;47.830;19.046;2023-11-21T07:11:57;99807.53;;;3.89;100.00
46347;BME280;32057;47.830;19.046;2023-11-21T07:14:23;99819.16;;;4.00;100.00
46347;BME280;32057;47.830;19.046;2023-11-21T07:16:48;99815.09;;;4.07;100.00
46347;BME280;32057;47.830;19.046;2023-11-21T07:19:14;99813.66;;;4.13;100.00
46347;BME280;32057;47.830;19.046;2023-11-21T07:21:40;99809.75;;;4.25;100.00
46347;BME280;32057;47.830;19.046;2023-11-21T07:24:06;99808.63;;;4.41;100.00
46347;BME280;32057;47.830;19.046;2023-11-21T07:26:33;99807.28;;;4.50;100.00
46347;BME280;32057;47.830;19.046;2023-11-21T07:28:59;99800.91;;;4.65;100.00
46347;BME280;32057;47.830;19.046;2023-11-21T07:31:25;99802.09;;;4.74;100.00
46347;BME280;32057;47.830;19.046;2023-11-21T07:33:51;99801.66;;;4.86;100.00
46347;BME280;32057;47.830;19.046;2023-11-21T07:36:17;99806.94;;;4.89;100.00
46347;BME280;32057;47.830;19.046;2023-11-21T07:38:48;99805.28;;;4.91;100.00
46347;BME280;32057;47.830;19.046;2023-11-21T07:41:14;99810.53;;;4.94;100.00
46347;BME280;32057;47.830;19.046;2023-11-21T07:43:43;99812.31;;;4.95;100.00
46347;BME280;32057;47.830;19.046;2023-11-21T07:46:09;99811.78;;;5.06;100.00
46347;BME280;32057;47.830;19.046;2023-11-21T07:48:35;99810.50;;;5.18;100.00
46347;BME280;32057;47.830;19.046;2023-11-21T07:51:03;99804.00;;;5.30;100.00
46347;BME280;32057;47.830;19.046;2023-11-21T07:53:29;99808.03;;;5.49;100.00
46347;BME280;32057;47.830;19.046;2023-11-21T07:56:05;99809.56;;;5.69;100.00
46347;BME280;32057;47.830;19.046;2023-11-21T07:58:31;99811.69;;;5.83;100.00
46347;BME280;32057;47.830;19.046;2023-11-21T08:01:00;99810.31;;;5.94;100.00
46347;BME280;32057;47.830;19.046;2023-11-21T08:03:26;99810.66;;;6.03;100.00
46347;BME280;32057;47.830;19.046;2023-11-21T08:05:52;99809.06;;;6.08;100.00
46347;BME280;32057;47.830;19.046;2023-11-21T08:08:17;99814.41;;;6.14;100.00
46347;BME280;32057;47.830;19.046;2023-11-21T08:10:44;99804.31;;;6.22;100.00
46347;BME280;32057;47.830;19.046;2023-11-21T08:13:19;99798.50;;;6.29;100.00
46347;BME280;32057;47.830;19.046;2023-11-21T08:15:45;99794.25;;;6.31;100.00
46347;BME280;32057;47.830;19.046;2023-11-21T08:18:11;99794.25;;;6.33;100.00
46347;BME280;32057;47.830;19.046;2023-11-21T08:20:38;99793.41;;;6.32;100.00
46347;BME280;32057;47.830;19.046;2023-11-21T08:23:05;99790.88;;;6.34;100.00
46347;BME280;32057;47.830;19.046;2023-11-21T08:25:31;99789.38;;;6.42;100.00
46347;BME280;32057;47.830;19.046;2023-11-21T08:27:57;99796.38;;;6.46;100.00
46347;BME280;32057;47.830;19.046;2023-11-21T08:30:22;99796.38;;;6.46;100.00
46347;BME280;32057;47.830;19.046;2023-11-21T08:32:49;99795.56;;;6.49;100.00
46347;BME280;32057;47.830;19.046;2023-11-21T08:35:16;99796.25;;;6.42;100.00
46347;BME280;32057;47.830;19.046;2023-11-21T08:37:42;99799.13;;;6.52;100.00
46347;BME280;32057;47.830;19.046;2023-11-21T08:40:08;99794.88;;;6.54;100.00
46347;BME280;32057;47.830;19.046;2023-11-21T08:42:35;99800.91;;;6.55;100.00
46347;BME280;32057;47.830;19.046;2023-11-21T08:45:01;99800.91;;;6.53;100.00
46347;BME280;32057;47.830;19.046;2023-11-21T08:47:26;99799.06;;;6.51;100.00
46347;BME280;32057;47.830;19.046;2023-11-21T08:49:52;99794.88;;;6.54;100.00
46347;BME280;32057;47.830;19.046;2023-11-21T08:52:19;99792.28;;;6.54;100.00
46347;BME280;32057;47.830;19.046;2023-11-21T08:54:48;99797.63;;;6.59;100.00
46347;BME280;32057;47.830;19.046;2023-11-21T08:57:23;99793.47;;;6.66;100.00
46347;BME280;32057;47.830;19.046;2023-11-21T08:59:49;99804.78;;;6.69;100.00
46347;BME280;32057;47.830;19.046;2023-11-21T09:02:20;99814.31;;;6.72;100.00
46347;BME280;32057;47.830;19.046;2023-11-21T09:04:46;99803.19;;;6.74;100.00
46347;BME280;32057;47.830;19.046;2023-11-21T09:07:11;99806.69;;;6.76;100.00
46347;BME280;32057;47.830;19.046;2023-11-21T09:09:36;99802.47;;;6.80;100.00
46347;BME280;32057;47.830;19.046;2023-11-21T09:12:02;99805.09;;;6.82;100.00
46347;BME280;32057;47.830;19.046;2023-11-21T09:14:27;99803.44;;;6.84;100.00
46347;BME280;32057;47.830;19.046;2023-11-21T09:16:53;99805.22;;;6.86;100.00
46347;BME280;32057;47.830;19.046;2023-11-21T09:19:19;99800.97;;;6.88;100.00
46347;BME280;32057;47.830;19.046;2023-11-21T09:21:44;99795.78;;;6.88;100.00
46347;BME280;32057;47.830;19.046;2023-11-21T09:24:09;99802.78;;;6.92;100.00
46347;BME280;32057;47.830;19.046;2023-11-21T09:26:35;99801.22;;;6.97;100.00
46347;BME280;32057;47.830;19.046;2023-11-21T09:29:00;99796.13;;;7.01;100.00
46347;BME280;32057;47.830;19.046;2023-11-21T09:31:27;99784.19;;;7.06;100.00
46347;BME280;32057;47.830;19.046;2023-11-21T09:33:53;99783.47;;;7.11;100.00
46347;BME280;32057;47.830;19.046;2023-11-21T09:36:19;99775.78;;;7.14;100.00
46347;BME280;32057;47.830;19.046;2023-11-21T09:38:46;99779.31;;;7.18;100.00
46347;BME280;32057;47.830;19.046;2023-11-21T09:41:34;99782.81;;;7.20;100.00
46347;BME280;32057;47.830;19.046;2023-11-21T09:44:07;99782.97;;;7.26;100.00
46347;BME280;32057;47.830;19.046;2023-11-21T09:46:37;99771.75;;;7.26;100.00
46347;BME280;32057;47.830;19.046;2023-11-21T09:49:05;99773.53;;;7.28;100.00
46347;BME280;32057;47.830;19.046;2023-11-21T09:51:39;99766.63;;;7.29;100.00
46347;BME280;32057;47.830;19.046;2023-11-21T09:54:07;99765.91;;;7.34;100.00
46347;BME280;32057;47.830;19.046;2023-11-21T09:56:34;99762.50;;;7.35;100.00
46347;BME280;32057;47.830;19.046;2023-11-21T09:59:01;99752.19;;;7.38;100.00
46347;BME280;32057;47.830;19.046;2023-11-21T10:01:32;99754.88;;;7.42;100.00
46347;BME280;32057;47.830;19.046;2023-11-21T10:03:58;99755.06;;;7.49;100.00
46347;BME280;32057;47.830;19.046;2023-11-21T10:06:25;99758.41;;;7.45;100.00
46347;BME280;32057;47.830;19.046;2023-11-21T10:08:53;99757.59;;;7.48;100.00
46347;BME280;32057;47.830;19.046;2023-11-21T10:11:19;99751.66;;;7.52;100.00
46347;BME280;32057;47.830;19.046;2023-11-21T10:13:46;99749.94;;;7.52;100.00
46347;BME280;32057;47.830;19.046;2023-11-21T10:16:14;99755.25;;;7.58;100.00
46347;BME280;32057;47.830;19.046;2023-11-21T10:18:41;99747.63;;;7.63;100.00
46347;BME280;32057;47.830;19.046;2023-11-21T10:21:07;99747.66;;;7.66;100.00
46347;BME280;32057;47.830;19.046;2023-11-21T10:23:34;99735.72;;;7.71;100.00
46347;BME280;32057;47.830;19.046;2023-11-21T10:26:00;99738.38;;;7.76;100.00
46347;BME280;32057;47.830;19.046;2023-11-21T10:28:26;99734.22;;;7.83;100.00
46347;BME280;32057;47.830;19.046;2023-11-21T10:30:52;99732.59;;;7.88;100.00
46347;BME280;32057;47.830;19.046;2023-11-21T10:33:26;99725.03;;;7.97;100.00
46347;BME280;32057;47.830;19.046;2023-11-21T10:35:52;99731.25;;;8.05;100.00
46347;BME280;32057;47.830;19.046;2023-11-21T10:38:20;99733.13;;;8.12;100.00
46347;BME280;32057;47.830;19.046;2023-11-21T10:40:48;99726.31;;;8.17;100.00
46347;BME280;32057;47.830;19.046;2023-11-21T10:43:14;99729.81;;;8.20;100.00
46347;BME280;32057;47.830;19.046;2023-11-21T10:45:41;99733.34;;;8.25;100.00
46347;BME280;32057;47.830;19.046;2023-11-21T10:48:12;99722.28;;;8.32;100.00
46347;BME280;32057;47.830;19.046;2023-11-21T10:50:41;99720.63;;;8.35;100.00
46347;BME280;32057;47.830;19.046;2023-11-21T10:53:06;99725.09;;;8.41;100.00
46347;BME280;32057;47.830;19.046;2023-11-21T10:55:33;99722.63;;;8.47;100.00
46347;BME280;32057;47.830;19.046;2023-11-21T10:58:03;99720.19;;;8.56;100.00
46347;BME280;32057;47.830;19.046;2023-11-21T11:00:32;99720.25;;;8.60;100.00
46347;BME280;32057;47.830;19.046;2023-11-21T11:02:58;99709.75;;;8.53;100.00
46347;BME280;32057;47.830;19.046;2023-11-21T11:05:28;99716.78;;;8.61;100.00
46347;BME280;32057;47.830;19.046;2023-11-21T11:08:05;99720.31;;;8.64;100.00
46347;BME280;32057;47.830;19.046;2023-11-21T11:10:33;99722.13;;;8.67;100.00
46347;BME280;32057;47.830;19.046;2023-11-21T11:12:59;99725.63;;;8.69;100.00
46347;BME280;32057;47.830;19.046;2023-11-21T11:15:25;99716.97;;;8.70;100.00
46347;BME280;32057;47.830;19.046;2023-11-21T11:17:52;99724.81;;;8.74;100.00
46347;BME280;32057;47.830;19.046;2023-11-21T11:20:23;99711.94;;;8.77;100.00
46347;BME280;32057;47.830;19.046;2023-11-21T11:25:34;99710.19;;;8.78;100.00
46347;BME280;32057;47.830;19.046;2023-11-21T11:28:26;99711.97;;;8.79;100.00
46347;BME280;32057;47.830;19.046;2023-11-21T11:31:05;99711.97;;;8.81;100.00
46347;BME280;32057;47.830;19.046;2023-11-21T11:33:48;99703.38;;;8.83;100.00
46347;BME280;32057;47.830;19.046;2023-11-21T11:36:35;99705.94;;;8.82;100.00
46347;BME280;32057;47.830;19.046;2023-11-21T11:39:02;99698.19;;;8.83;100.00
46347;BME280;32057;47.830;19.046;2023-11-21T11:41:31;99700.00;;;8.87;100.00
46347;BME280;32057;47.830;19.046;2023-11-21T11:44:02;99700.03;;;8.90;100.00
46347;BME280;32057;47.830;19.046;2023-11-21T11:46:42;99701.75;;;8.90;100.00
46347;BME280;32057;47.830;19.046;2023-11-21T11:49:07;99698.31;;;8.92;100.00
46347;BME280;32057;47.830;19.046;2023-11-21T11:51:33;99702.72;;;8.96;100.00
46347;BME280;32057;47.830;19.046;2023-11-21T11:54:01;99700.09;;;8.93;100.00
46347;BME280;32057;47.830;19.046;2023-11-21T11:56:28;99700.13;;;8.96;100.00
46347;BME280;32057;47.830;19.046;2023-11-21T11:58:58;99703.63;;;8.98;100.00
46347;BME280;32057;47.830;19.046;2023-11-21T12:01:25;99700.19;;;9.00;100.00
46347;BME280;32057;47.830;19.046;2023-11-21T12:06:45;99695.84;;;8.98;100.00
46347;BME280;32057;47.830;19.046;2023-11-21T12:09:24;99688.88;;;8.96;100.00
46347;BME280;32057;47.830;19.046;2023-11-21T12:11:52;99679.41;;;8.98;100.00
46347;BME280;32057;47.830;19.046;2023-11-21T12:14:18;99682.03;;;9.00;100.00
46347;BME280;32057;47.830;19.046;2023-11-21T12:16:44;99681.06;;;8.94;100.00
46347;BME280;32057;47.830;19.046;2023-11-21T12:19:12;99690.63;;;8.98;100.00
46347;BME280;32057;47.830;19.046;2023-11-21T12:21:38;99690.72;;;9.02;100.00
46347;BME280;32057;47.830;19.046;2023-11-21T12:24:06;99686.34;;;8.99;100.00
46347;BME280;32057;47.830;19.046;2023-11-21T12:26:34;99687.22;;;9.00;100.00
46347;BME280;32057;47.830;19.046;2023-11-21T12:29:01;99688.03;;;8.98;100.00
46347;BME280;32057;47.830;19.046;2023-11-21T12:31:29;99690.63;;;8.97;100.00
46347;BME280;32057;47.830;19.046;2023-11-21T12:33:55;99699.25;;;8.96;100.00
46347;BME280;32057;47.830;19.046;2023-11-21T12:36:21;99686.31;;;8.97;100.00
46347;BME280;32057;47.830;19.046;2023-11-21T12:38:47;99684.56;;;8.96;100.00
46347;BME280;32057;47.830;19.046;2023-11-21T12:41:12;99676.78;;;8.96;100.00
46347;BME280;32057;47.830;19.046;2023-11-21T12:43:38;99678.47;;;8.94;100.00
46347;BME280;32057;47.830;19.046;2023-11-21T12:46:08;99680.97;;;8.88;100.00
46347;BME280;32057;47.830;19.046;2023-11-21T12:48:38;99684.44;;;8.87;100.00
46347;BME280;32057;47.830;19.046;2023-11-21T12:51:12;99689.56;;;8.86;100.00
46347;BME280;32057;47.830;19.046;2023-11-21T12:53:39;99688.72;;;8.85;100.00